createdAt,value
2018-12-14T00:01:23.127Z,99943.14
2018-12-14T00:03:52.089Z,99941.27
2018-12-14T00:06:20.986Z,99943.62
2018-12-14T00:08:49.972Z,99944.20
2018-12-14T00:11:19.053Z,99937.66
2018-12-14T00:13:48.162Z,99926.88
2018-12-14T00:16:17.073Z,99920.52
2018-12-14T00:18:46.049Z,99916.95
2018-12-14T00:21:15.056Z,99910.67
2018-12-14T00:23:43.969Z,99922.97
2018-12-14T00:26:13.025Z,99921.07
2018-12-14T00:28:42.433Z,99930.20
2018-12-14T00:31:11.435Z,99949.31
2018-12-14T00:33:40.438Z,99954.05
2018-12-14T00:36:09.347Z,99949.09
2018-12-14T00:38:38.257Z,99957.58
2018-12-14T00:41:07.459Z,99952.98
2018-12-14T00:43:36.393Z,99956.45
2018-12-14T00:46:05.324Z,99961.73
2018-12-14T00:48:34.455Z,99938.38
2018-12-14T00:51:03.360Z,99943.33
2018-12-14T00:53:32.254Z,99936.35
2018-12-14T00:56:01.142Z,99938.34
2018-12-14T00:58:29.969Z,99932.03
2018-12-14T01:00:58.800Z,99929.62
2018-12-14T01:03:27.811Z,99929.88
2018-12-14T01:05:56.611Z,99919.77
2018-12-14T01:08:25.516Z,99922.19
2018-12-14T01:10:54.431Z,99926.72
2018-12-14T01:13:23.461Z,99940.73
2018-12-14T01:15:52.259Z,99937.39
2018-12-14T01:18:21.217Z,99941.09
2018-12-14T01:20:50.185Z,99941.59
2018-12-14T01:23:19.125Z,99939.42
2018-12-14T01:25:48.017Z,99929.44
2018-12-14T01:28:17.317Z,99927.77
2018-12-14T01:30:46.325Z,99930.55
2018-12-14T01:33:15.245Z,99916.59
2018-12-14T01:35:44.135Z,99910.55
2018-12-14T01:38:13.125Z,99912.08
2018-12-14T01:40:42.020Z,99904.91
2018-12-14T01:43:10.928Z,99900.17
2018-12-14T01:45:39.953Z,99904.00
2018-12-14T01:48:08.792Z,99905.16
2018-12-14T01:50:37.907Z,99910.09
2018-12-14T01:53:06.924Z,99912.47
2018-12-14T01:55:36.321Z,99913.53
2018-12-14T01:58:05.346Z,99914.95
2018-12-14T02:00:34.316Z,99911.02
2018-12-14T02:03:03.393Z,99910.69
2018-12-14T02:05:32.500Z,99904.38
2018-12-14T02:08:01.453Z,99904.50
2018-12-14T02:10:30.395Z,99904.29
2018-12-14T02:12:59.325Z,99909.20
2018-12-14T02:15:28.236Z,99900.58
2018-12-14T02:17:57.141Z,99913.34
2018-12-14T02:20:26.039Z,99910.80
2018-12-14T02:22:54.950Z,99916.71
2018-12-14T02:25:23.869Z,99919.45
2018-12-14T02:27:52.750Z,99930.33
2018-12-14T02:30:46.150Z,99926.92
2018-12-14T02:33:14.941Z,99921.25
2018-12-14T02:35:43.975Z,99923.05
2018-12-14T02:38:13.351Z,99920.39
2018-12-14T02:40:42.408Z,99925.50
2018-12-14T02:43:11.400Z,99919.20
2018-12-14T02:45:40.402Z,99924.96
2018-12-14T02:48:09.224Z,99922.17
2018-12-14T02:50:38.139Z,99914.26
2018-12-14T02:53:07.066Z,99921.14
2018-12-14T02:55:35.994Z,99926.41
2018-12-14T02:58:04.916Z,99931.41
2018-12-14T03:00:33.857Z,99929.41
2018-12-14T03:03:02.775Z,99922.11
2018-12-14T03:05:31.760Z,99924.77
2018-12-14T03:08:00.667Z,99927.01
2018-12-14T03:13:05.645Z,99929.69
2018-12-14T03:15:35.170Z,99934.77
2018-12-14T03:18:04.184Z,99935.73
2018-12-14T03:20:33.003Z,99934.19
2018-12-14T03:23:01.898Z,99934.16
2018-12-14T03:25:30.926Z,99947.00
2018-12-14T03:27:59.849Z,99948.78
2018-12-14T03:30:28.747Z,99953.16
2018-12-14T03:32:57.782Z,99952.49
2018-12-14T03:35:26.810Z,99956.98
2018-12-14T03:37:55.730Z,99961.34
2018-12-14T03:40:24.652Z,99961.75
2018-12-14T03:42:53.544Z,99972.23
2018-12-14T03:45:22.447Z,99975.17
2018-12-14T03:47:51.325Z,99980.77
2018-12-14T03:50:20.204Z,99987.72
2018-12-14T03:52:49.225Z,99990.80
2018-12-14T03:55:18.162Z,99985.73
2018-12-14T03:57:47.069Z,99986.97
2018-12-14T04:00:16.754Z,99996.82
2018-12-14T04:02:45.881Z,100000.39
2018-12-14T04:05:14.923Z,99992.75
2018-12-14T04:07:43.927Z,99994.56
2018-12-14T04:10:12.862Z,99991.98
2018-12-14T04:12:42.207Z,99994.05
2018-12-14T04:15:11.580Z,99995.78
2018-12-14T04:17:40.677Z,99995.34
2018-12-14T04:20:09.677Z,99989.04
2018-12-14T04:22:38.569Z,100000.06
2018-12-14T04:25:07.629Z,100004.02
2018-12-14T04:27:36.606Z,100007.51
2018-12-14T04:30:06.300Z,100017.04
2018-12-14T04:32:35.191Z,100017.36
2018-12-14T04:35:04.680Z,100014.45
2018-12-14T04:37:33.573Z,100018.27
2018-12-14T04:40:03.028Z,100018.82
2018-12-14T04:42:32.485Z,100020.11
2018-12-14T04:45:01.388Z,100011.86
2018-12-14T04:47:30.443Z,100015.73
2018-12-14T04:49:59.352Z,100015.72
2018-12-14T04:52:28.348Z,100023.82
2018-12-14T04:54:57.131Z,100023.94
2018-12-14T04:57:26.062Z,100027.42
2018-12-14T04:59:55.060Z,100021.81
2018-12-14T05:02:23.949Z,100026.13
2018-12-14T05:04:53.189Z,100025.62
2018-12-14T05:07:22.121Z,100017.41
2018-12-14T05:09:51.041Z,100017.86
2018-12-14T05:12:20.027Z,100022.88
2018-12-14T05:14:49.283Z,100027.27
2018-12-14T05:17:18.347Z,100027.78
2018-12-14T05:19:47.352Z,100025.19
2018-12-14T05:22:16.156Z,100027.94
2018-12-14T05:24:45.040Z,100032.01
2018-12-14T05:27:14.093Z,100035.91
2018-12-14T05:29:43.502Z,100032.97
2018-12-14T05:32:12.497Z,100037.58
2018-12-14T05:34:41.493Z,100035.06
2018-12-14T05:37:10.292Z,100038.39
2018-12-14T05:39:39.193Z,100037.50
2018-12-14T05:42:09.253Z,100034.21
2018-12-14T05:44:38.157Z,100042.75
2018-12-14T05:47:07.046Z,100040.18
2018-12-14T05:49:36.093Z,100044.14
2018-12-14T05:52:04.930Z,100052.86
2018-12-14T05:54:33.827Z,100051.11
2018-12-14T05:57:02.832Z,100061.84
2018-12-14T05:59:31.909Z,100069.65
2018-12-14T06:02:00.820Z,100070.42
2018-12-14T06:04:29.725Z,100065.31
2018-12-14T06:06:58.709Z,100075.32
2018-12-14T06:09:27.544Z,100084.38
2018-12-14T06:11:56.469Z,100085.22
2018-12-14T06:14:25.596Z,100081.81
2018-12-14T06:16:54.530Z,100084.38
2018-12-14T06:19:23.439Z,100082.61
2018-12-14T06:21:52.533Z,100087.79
2018-12-14T06:24:21.426Z,100088.22
2018-12-14T06:26:50.347Z,100095.16
2018-12-14T06:29:19.287Z,100099.43
2018-12-14T06:31:48.191Z,100101.97
2018-12-14T06:34:17.085Z,100099.45
2018-12-14T06:36:45.956Z,100096.88
2018-12-14T06:39:15.030Z,100099.52
2018-12-14T06:41:44.288Z,100096.94
2018-12-14T06:44:13.089Z,100097.78
2018-12-14T06:46:41.996Z,100106.84
2018-12-14T06:49:10.913Z,100111.95
2018-12-14T06:51:39.963Z,100111.10
2018-12-14T06:54:09.456Z,100113.67
2018-12-14T06:56:38.258Z,100111.63
2018-12-14T06:59:07.053Z,100119.30
2018-12-14T07:01:35.939Z,100121.53
2018-12-14T07:04:04.882Z,100126.73
2018-12-14T07:06:33.784Z,100129.27
2018-12-14T07:09:04.510Z,100125.84
2018-12-14T07:11:33.560Z,100123.55
2018-12-14T07:14:03.622Z,100127.86
2018-12-14T07:16:32.781Z,100121.80
2018-12-14T07:19:01.693Z,100115.32
2018-12-14T07:21:30.589Z,100124.42
2018-12-14T07:23:59.520Z,100124.59
2018-12-14T07:26:28.690Z,100125.75
2018-12-14T07:28:57.729Z,100121.55
2018-12-14T07:31:26.632Z,100124.91
2018-12-14T07:33:55.628Z,100123.51
2018-12-14T07:36:24.532Z,100125.95
2018-12-14T07:38:53.463Z,100134.22
2018-12-14T07:41:22.367Z,100140.84
2018-12-14T07:43:51.312Z,100150.41
2018-12-14T07:46:20.589Z,100147.88
2018-12-14T07:48:49.633Z,100152.27
2018-12-14T07:51:18.429Z,100143.33
2018-12-14T07:53:47.504Z,100144.58
2018-12-14T07:56:16.281Z,100148.40
2018-12-14T07:58:45.442Z,100151.43
2018-12-14T08:01:14.696Z,100141.61
2018-12-14T08:03:43.614Z,100144.52
2018-12-14T08:06:12.503Z,100147.28
2018-12-14T08:08:41.429Z,100151.53
2018-12-14T08:11:10.439Z,100148.94
2018-12-14T08:13:39.437Z,100156.09
2018-12-14T08:16:08.419Z,100155.32
2018-12-14T08:18:40.326Z,100153.32
2018-12-14T08:21:09.294Z,100156.65
2018-12-14T08:23:38.201Z,100155.20
2018-12-14T08:26:07.159Z,100152.63
2018-12-14T08:28:36.111Z,100154.51
2018-12-14T08:31:05.040Z,100145.80
2018-12-14T08:33:33.816Z,100147.48
2018-12-14T08:36:02.757Z,100152.30
2018-12-14T08:38:31.890Z,100152.66
2018-12-14T08:41:00.780Z,100156.17
2018-12-14T08:43:29.897Z,100158.39
2018-12-14T08:45:58.697Z,100151.74
2018-12-14T08:48:27.857Z,100148.02
2018-12-14T08:50:56.758Z,100144.34
2018-12-14T08:53:25.926Z,100144.50
2018-12-14T08:55:55.082Z,100139.86
2018-12-14T08:58:23.970Z,100139.70
2018-12-14T09:00:52.919Z,100140.11
2018-12-14T09:03:21.808Z,100137.51
2018-12-14T09:05:50.817Z,100139.34
2018-12-14T09:08:19.737Z,100132.36
2018-12-14T09:10:48.657Z,100142.22
2018-12-14T09:13:17.761Z,100140.92
2018-12-14T09:15:46.707Z,100138.81
2018-12-14T09:18:15.596Z,100135.63
2018-12-14T09:20:44.502Z,100129.45
2018-12-14T09:23:13.521Z,100137.03
2018-12-14T09:25:42.487Z,100126.64
2018-12-14T09:28:11.565Z,100126.56
2018-12-14T09:30:42.841Z,100126.05
2018-12-14T09:33:11.628Z,100125.47
2018-12-14T09:35:40.501Z,100120.98
2018-12-14T09:38:09.549Z,100117.50
2018-12-14T09:40:38.565Z,100119.94
2018-12-14T09:43:07.528Z,100116.70
2018-12-14T09:45:36.564Z,100116.47
2018-12-14T09:48:05.557Z,100122.64
2018-12-14T09:50:34.571Z,100123.31
2018-12-14T09:53:03.464Z,100121.69
2018-12-14T09:55:32.424Z,100123.34
2018-12-14T09:58:01.370Z,100122.50
2018-12-14T10:00:30.269Z,100126.91
2018-12-14T10:02:59.689Z,100122.02
2018-12-14T10:05:28.628Z,100117.71
2018-12-14T10:07:57.519Z,100114.59
2018-12-14T10:10:26.366Z,100108.09
2018-12-14T10:12:55.290Z,100102.69
2018-12-14T10:15:24.600Z,100110.42
2018-12-14T10:17:53.633Z,100110.93
2018-12-14T10:20:22.861Z,100103.73
2018-12-14T10:22:51.788Z,100104.36
2018-12-14T10:25:20.681Z,100098.36
2018-12-14T10:27:49.678Z,100092.05
2018-12-14T10:30:18.603Z,100090.40
2018-12-14T10:32:47.704Z,100092.83
2018-12-14T10:35:16.660Z,100085.59
2018-12-14T10:37:45.703Z,100087.33
2018-12-14T10:40:14.634Z,100088.53
2018-12-14T10:42:43.550Z,100085.43
2018-12-14T10:45:12.561Z,100080.80
2018-12-14T10:47:41.456Z,100082.20
2018-12-14T10:50:10.381Z,100079.80
2018-12-14T10:52:39.341Z,100081.49
2018-12-14T10:55:08.377Z,100075.25
2018-12-14T10:57:37.748Z,100075.58
2018-12-14T11:00:15.648Z,100079.11
2018-12-14T11:02:44.675Z,100075.21
2018-12-14T11:05:13.609Z,100083.20
2018-12-14T11:07:42.451Z,100074.92
2018-12-14T11:10:11.617Z,100070.09
2018-12-14T11:12:40.488Z,100062.09
2018-12-14T11:15:09.422Z,100061.09
2018-12-14T11:17:38.517Z,100058.09
2018-12-14T11:20:09.209Z,100056.72
2018-12-14T11:22:38.121Z,100058.63
2018-12-14T11:25:07.912Z,100067.41
2018-12-14T11:27:36.842Z,100057.72
2018-12-14T11:30:07.575Z,100059.94
2018-12-14T11:32:36.527Z,100060.11
2018-12-14T11:35:05.541Z,100057.70
2018-12-14T11:37:34.472Z,100055.34
2018-12-14T11:40:04.915Z,100048.27
2018-12-14T11:42:33.937Z,100043.86
2018-12-14T11:45:03.066Z,100039.12
2018-12-14T11:47:32.135Z,100037.67
2018-12-14T11:50:01.059Z,100032.81
2018-12-14T11:52:29.941Z,100022.73
2018-12-14T11:54:58.840Z,100027.89
2018-12-14T11:57:27.829Z,100020.67
2018-12-14T11:59:56.873Z,100021.06
2018-12-14T12:02:25.805Z,100023.23
2018-12-14T12:04:54.700Z,100018.42
2018-12-14T12:07:23.809Z,100010.08
2018-12-14T12:09:52.741Z,100003.89
2018-12-14T12:12:21.708Z,100010.23
2018-12-14T12:14:50.654Z,100011.14
2018-12-14T12:17:19.595Z,100012.09
2018-12-14T12:19:48.505Z,100008.22
2018-12-14T12:22:17.401Z,100004.98
2018-12-14T12:24:46.378Z,100007.02
2018-12-14T12:27:15.284Z,100011.22
2018-12-14T12:29:44.202Z,100007.27
2018-12-14T12:32:13.193Z,100008.23
2018-12-14T12:34:42.179Z,100007.13
2018-12-14T12:37:10.990Z,100008.42
2018-12-14T12:39:39.873Z,100013.07
2018-12-14T12:42:08.949Z,100025.48
2018-12-14T12:44:37.879Z,100037.03
2018-12-14T12:47:06.792Z,100040.84
2018-12-14T12:49:35.786Z,100041.99
2018-12-14T12:52:04.684Z,100039.16
2018-12-14T12:54:33.634Z,100037.16
2018-12-14T12:57:02.544Z,100044.44
2018-12-14T12:59:32.016Z,100047.66
2018-12-14T13:02:01.266Z,100035.05
2018-12-14T13:04:30.441Z,100044.55
2018-12-14T13:06:59.329Z,100049.28
2018-12-14T13:09:28.267Z,100052.88
2018-12-14T13:11:57.305Z,100052.38
2018-12-14T13:14:26.198Z,100067.47
2018-12-14T13:16:55.178Z,100075.23
2018-12-14T13:19:24.112Z,100071.37
2018-12-14T13:21:53.089Z,100069.47
2018-12-14T13:24:22.381Z,100064.91
2018-12-14T13:26:51.318Z,100063.80
2018-12-14T13:29:20.558Z,100052.56
2018-12-14T13:31:49.568Z,100052.95
2018-12-14T13:34:18.538Z,100061.16
2018-12-14T13:36:48.043Z,100058.47
2018-12-14T13:39:17.809Z,100057.99
2018-12-14T13:41:47.177Z,100061.89
2018-12-14T13:44:16.068Z,100060.20
2018-12-14T13:46:45.009Z,100054.95
2018-12-14T13:49:13.899Z,100047.20
2018-12-14T13:51:42.896Z,100045.84
2018-12-14T13:54:11.966Z,100045.38
2018-12-14T13:56:41.425Z,100048.80
2018-12-14T13:59:10.512Z,100048.76
2018-12-14T14:01:39.627Z,100049.98
2018-12-14T14:04:08.673Z,100062.16
2018-12-14T14:06:37.864Z,100060.91
2018-12-14T14:09:07.017Z,100066.55
2018-12-14T14:11:36.080Z,100057.09
2018-12-14T14:14:05.116Z,100061.51
2018-12-14T14:16:34.229Z,100063.08
2018-12-14T14:19:03.208Z,100056.96
2018-12-14T14:21:32.340Z,100057.95
2018-12-14T14:24:01.432Z,100043.98
2018-12-14T14:26:30.733Z,100037.38
2018-12-14T14:28:59.841Z,100043.89
2018-12-14T14:31:29.059Z,100049.80
2018-12-14T14:33:58.070Z,100049.22
2018-12-14T14:36:27.065Z,100045.51
2018-12-14T14:38:56.656Z,100053.52
2018-12-14T14:41:25.830Z,100051.97
2018-12-14T14:43:55.143Z,100053.55
2018-12-14T14:46:24.653Z,100052.84
2018-12-14T14:48:54.314Z,100045.94
2018-12-14T14:51:23.600Z,100028.17
2018-12-14T14:53:53.676Z,100028.17
2018-12-14T14:56:22.696Z,100029.86
2018-12-14T14:58:51.600Z,100039.98
2018-12-14T15:01:20.517Z,100037.03
2018-12-14T15:03:49.823Z,100043.02
2018-12-14T15:06:19.532Z,100037.19
2018-12-14T15:08:49.898Z,100045.16
2018-12-14T15:11:19.136Z,100044.40
2018-12-14T15:13:48.292Z,100040.42
2018-12-14T15:16:17.316Z,100040.78
2018-12-14T15:18:46.401Z,100043.14
2018-12-14T15:21:15.828Z,100035.22
2018-12-14T15:23:44.881Z,100032.54
2018-12-14T15:26:13.893Z,100044.33
2018-12-14T15:28:43.931Z,100053.11
2018-12-14T15:31:12.928Z,100067.94
2018-12-14T15:33:41.849Z,100066.55
2018-12-14T15:36:10.842Z,100069.28
2018-12-14T15:38:39.736Z,100070.50
2018-12-14T15:41:08.832Z,100070.39
2018-12-14T15:43:37.948Z,100070.81
2018-12-14T15:46:06.868Z,100071.20
2018-12-14T15:48:36.019Z,100066.01
2018-12-14T15:51:04.905Z,100068.48
2018-12-14T15:53:34.341Z,100061.23
2018-12-14T15:56:03.869Z,100062.61
2018-12-14T15:58:32.976Z,100071.80
2018-12-14T16:01:02.114Z,100069.99
2018-12-14T16:03:31.425Z,100073.06
2018-12-14T16:06:00.413Z,100073.14
2018-12-14T16:08:29.519Z,100061.98
2018-12-14T16:10:58.434Z,100067.91
2018-12-14T16:13:27.381Z,100070.90
2018-12-14T16:15:56.326Z,100064.98
2018-12-14T16:18:26.544Z,100067.63
2018-12-14T16:20:55.654Z,100059.42
2018-12-14T16:23:25.005Z,100065.96
2018-12-14T16:25:54.573Z,100082.64
2018-12-14T16:28:24.142Z,100084.06
2018-12-14T16:30:53.168Z,100081.22
2018-12-14T16:33:22.074Z,100079.69
2018-12-14T16:35:51.056Z,100078.81
2018-12-14T16:38:20.285Z,100077.27
2018-12-14T16:40:49.089Z,100075.46
2018-12-14T16:43:18.009Z,100081.37
2018-12-14T16:45:47.445Z,100073.77
2018-12-14T16:48:16.544Z,100070.77
2018-12-14T16:50:45.521Z,100069.28
2018-12-14T16:53:14.760Z,100072.39
2018-12-14T16:55:43.844Z,100072.03
2018-12-14T16:58:13.085Z,100071.16
2018-12-14T17:00:42.162Z,100069.03
2018-12-14T17:03:11.461Z,100058.23
2018-12-14T17:05:40.252Z,100058.16
2018-12-14T17:08:10.065Z,100052.56
2018-12-14T17:10:39.144Z,100050.31
2018-12-14T17:13:08.683Z,100045.94
2018-12-14T17:15:37.789Z,100046.09
2018-12-14T17:18:06.726Z,100052.25
2018-12-14T17:20:35.944Z,100044.01
2018-12-14T17:23:04.924Z,100038.69
2018-12-14T17:25:34.629Z,100039.36
2018-12-14T17:28:03.965Z,100037.23
2018-12-14T17:30:33.180Z,100054.58
2018-12-14T17:33:02.057Z,100058.47
2018-12-14T17:35:31.173Z,100057.96
2018-12-14T17:38:00.161Z,100061.08
2018-12-14T17:40:29.576Z,100064.39
2018-12-14T17:42:58.954Z,100060.45
2018-12-14T17:45:30.950Z,100054.58
2018-12-14T17:48:00.083Z,100061.31
2018-12-14T17:50:29.096Z,100064.55
2018-12-14T17:52:59.216Z,100064.63
2018-12-14T17:55:28.219Z,100059.73
2018-12-14T17:57:57.260Z,100055.24
2018-12-14T18:00:26.358Z,100056.15
2018-12-14T18:02:56.157Z,100043.38
2018-12-14T18:05:25.077Z,100044.48
2018-12-14T18:07:54.041Z,100052.16
2018-12-14T18:10:23.222Z,100049.84
2018-12-14T18:12:52.180Z,100054.66
2018-12-14T18:15:21.173Z,100064.75
2018-12-14T18:17:50.211Z,100061.48
2018-12-14T18:20:20.438Z,100056.66
2018-12-14T18:22:49.688Z,100055.44
2018-12-14T18:25:18.860Z,100052.77
2018-12-14T18:27:47.787Z,100058.00
2018-12-14T18:30:16.745Z,100061.80
2018-12-14T18:32:45.729Z,100062.89
2018-12-14T18:35:14.628Z,100069.16
2018-12-14T18:37:44.226Z,100064.95
2018-12-14T18:40:13.244Z,100060.53
2018-12-14T18:42:42.236Z,100056.55
2018-12-14T18:45:11.352Z,100057.17
2018-12-14T18:47:40.447Z,100061.44
2018-12-14T18:50:09.582Z,100051.11
2018-12-14T18:52:38.621Z,100053.23
2018-12-14T18:55:07.787Z,100049.05
2018-12-14T18:57:36.729Z,100048.62
2018-12-14T19:00:07.780Z,100055.25
2018-12-14T19:02:36.810Z,100057.77
2018-12-14T19:05:06.632Z,100050.87
2018-12-14T19:07:35.642Z,100052.60
2018-12-14T19:10:05.244Z,100046.66
2018-12-14T19:12:35.404Z,100046.85
2018-12-14T19:15:07.688Z,100047.95
2018-12-14T19:17:36.692Z,100048.07
2018-12-14T19:20:06.520Z,100041.80
2018-12-14T19:22:35.734Z,100040.58
2018-12-14T19:25:04.997Z,100043.06
2018-12-14T19:27:34.506Z,100044.64
2018-12-14T19:30:04.089Z,100043.77
2018-12-14T19:32:33.188Z,100042.23
2018-12-14T19:35:03.016Z,100054.58
2018-12-14T19:37:31.928Z,100056.55
2018-12-14T19:40:00.830Z,100058.36
2018-12-14T19:42:29.739Z,100044.64
2018-12-14T19:44:58.731Z,100048.47
2018-12-14T19:47:27.773Z,100059.27
2018-12-14T19:49:57.028Z,100062.11
2018-12-14T19:52:26.260Z,100056.16
2018-12-14T19:54:55.927Z,100054.73
2018-12-14T19:57:24.916Z,100045.54
2018-12-14T19:59:53.858Z,100049.75
2018-12-14T20:02:22.798Z,100046.17
2018-12-14T20:04:52.077Z,100039.36
2018-12-14T20:07:22.149Z,100025.76
2018-12-14T20:09:51.145Z,100032.78
2018-12-14T20:12:20.266Z,100026.74
2018-12-14T20:14:49.268Z,100021.81
2018-12-14T20:17:18.251Z,100022.86
2018-12-14T20:19:47.572Z,100020.56
2018-12-14T20:22:17.729Z,100019.73
2018-12-14T20:24:46.776Z,100022.16
2018-12-14T20:27:15.661Z,100015.73
2018-12-14T20:29:44.784Z,100020.04
2018-12-14T20:32:13.778Z,100024.38
2018-12-14T20:34:42.573Z,100018.43
2018-12-14T20:37:11.574Z,100017.56
2018-12-14T20:39:40.585Z,100014.88
2018-12-14T20:42:10.497Z,100027.88
2018-12-14T20:44:39.417Z,100021.46
2018-12-14T20:47:08.413Z,100016.77
2018-12-14T20:49:37.225Z,100003.80
2018-12-14T20:52:06.215Z,100006.33
2018-12-14T20:54:35.005Z,100007.23
2018-12-14T20:57:04.038Z,100010.02
2018-12-14T20:59:32.952Z,100011.92
2018-12-14T21:02:01.845Z,100013.14
2018-12-14T21:04:31.033Z,100016.44
2018-12-14T21:06:59.935Z,100016.83
2018-12-14T21:09:28.824Z,100029.14
2018-12-14T21:11:57.900Z,100026.53
2018-12-14T21:14:27.205Z,100027.63
2018-12-14T21:16:56.098Z,100030.48
2018-12-14T21:19:24.998Z,100023.86
2018-12-14T21:21:54.023Z,100032.09
2018-12-14T21:24:22.790Z,100030.84
2018-12-14T21:26:51.585Z,100024.94
2018-12-14T21:29:20.501Z,100032.73
2018-12-14T21:31:49.412Z,100021.42
2018-12-14T21:34:19.281Z,100021.55
2018-12-14T21:36:48.178Z,100021.14
2018-12-14T21:39:17.152Z,100014.25
2018-12-14T21:41:45.945Z,100014.02
2018-12-14T21:44:15.980Z,100009.64
2018-12-14T21:46:44.892Z,100006.53
2018-12-14T21:49:13.892Z,100006.84
2018-12-14T21:51:42.780Z,99997.86
2018-12-14T21:54:11.781Z,99993.48
2018-12-14T21:56:40.569Z,99997.73
2018-12-14T21:59:09.804Z,99992.97
2018-12-14T22:01:38.692Z,99993.05
2018-12-14T22:04:07.584Z,99997.91
2018-12-14T22:06:36.988Z,100003.14
2018-12-14T22:09:08.381Z,100000.86
2018-12-14T22:11:37.385Z,100009.67
2018-12-14T22:14:06.462Z,99998.00
2018-12-14T22:16:39.179Z,99994.87
2018-12-14T22:19:06.479Z,99993.60
2018-12-14T22:21:35.377Z,99993.65
2018-12-14T22:24:04.500Z,99984.81
2018-12-14T22:26:33.576Z,99994.43
2018-12-14T22:29:02.589Z,99994.43
2018-12-14T22:31:31.513Z,99998.84
2018-12-14T22:34:00.535Z,99994.55
2018-12-14T22:36:29.497Z,99995.26
2018-12-14T22:38:58.279Z,99998.44
2018-12-14T22:41:27.193Z,99985.29
2018-12-14T22:43:55.992Z,99974.22
2018-12-14T22:46:24.956Z,99975.05
2018-12-14T22:48:53.862Z,99970.20
2018-12-14T22:51:22.849Z,99970.89
2018-12-14T22:53:51.730Z,99970.12
2018-12-14T22:56:20.673Z,99974.92
2018-12-14T22:58:49.822Z,99977.61
2018-12-14T23:01:18.697Z,99972.80
2018-12-14T23:03:47.688Z,99964.38
2018-12-14T23:06:16.853Z,99965.59
2018-12-14T23:08:45.741Z,99962.60
2018-12-14T23:11:14.621Z,99962.05
2018-12-14T23:13:43.517Z,99955.98
2018-12-14T23:16:12.633Z,99959.00
2018-12-14T23:18:41.581Z,99966.50
2018-12-14T23:21:10.356Z,99967.33
2018-12-14T23:23:39.328Z,99957.89
2018-12-14T23:26:08.261Z,99956.03
2018-12-14T23:28:37.140Z,99948.62
2018-12-14T23:31:06.069Z,99952.95
2018-12-14T23:33:34.865Z,99959.32
2018-12-14T23:36:03.778Z,99953.08
2018-12-14T23:38:32.856Z,99960.45
2018-12-14T23:41:01.781Z,99955.98
2018-12-14T23:43:30.872Z,99954.28
2018-12-14T23:45:59.767Z,99954.63
2018-12-14T23:48:28.672Z,99966.85
2018-12-14T23:50:57.614Z,99968.42
2018-12-14T23:53:26.505Z,99963.09
2018-12-14T23:55:55.416Z,99946.62
2018-12-14T23:58:24.296Z,99949.04
